sensor_id;sensor_type;location;lat;lon;timestamp;temperature;humidity
29345;DHT22;16339;48.748;2.222;2024-02-04T00:01:12;13.60;99.90
29345;DHT22;16339;48.748;2.222;2024-02-04T00:03:41;13.60;99.90
29345;DHT22;16339;48.748;2.222;2024-02-04T00:06:09;13.60;99.90
29345;DHT22;16339;48.748;2.222;2024-02-04T00:08:45;13.60;99.90
29345;DHT22;16339;48.748;2.222;2024-02-04T00:11:13;13.60;99.90
29345;DHT22;16339;48.748;2.222;2024-02-04T00:13:43;13.60;99.90
29345;DHT22;16339;48.748;2.222;2024-02-04T00:16:16;13.60;99.90
29345;DHT22;16339;48.748;2.222;2024-02-04T00:18:45;13.60;99.90
29345;DHT22;16339;48.748;2.222;2024-02-04T00:21:13;13.60;99.90
29345;DHT22;16339;48.748;2.222;2024-02-04T00:23:45;13.60;99.90
29345;DHT22;16339;48.748;2.222;2024-02-04T00:26:17;13.60;99.90
29345;DHT22;16339;48.748;2.222;2024-02-04T00:28:46;13.50;99.90
29345;DHT22;16339;48.748;2.222;2024-02-04T00:31:14;13.50;99.90
29345;DHT22;16339;48.748;2.222;2024-02-04T00:33:43;13.40;99.90
29345;DHT22;16339;48.748;2.222;2024-02-04T00:36:14;13.40;99.90
29345;DHT22;16339;48.748;2.222;2024-02-04T00:38:47;13.30;99.90
29345;DHT22;16339;48.748;2.222;2024-02-04T00:41:15;13.30;99.90
29345;DHT22;16339;48.748;2.222;2024-02-04T00:43:44;13.20;99.90
29345;DHT22;16339;48.748;2.222;2024-02-04T00:46:13;13.30;99.90
29345;DHT22;16339;48.748;2.222;2024-02-04T00:48:41;13.30;99.90
29345;DHT22;16339;48.748;2.222;2024-02-04T00:51:10;13.40;99.90
29345;DHT22;16339;48.748;2.222;2024-02-04T00:53:39;13.30;99.90
29345;DHT22;16339;48.748;2.222;2024-02-04T00:56:11;13.30;99.90
29345;DHT22;16339;48.748;2.222;2024-02-04T00:58:39;13.20;99.90
29345;DHT22;16339;48.748;2.222;2024-02-04T01:01:08;13.20;99.90
29345;DHT22;16339;48.748;2.222;2024-02-04T01:03:37;13.20;99.90
29345;DHT22;16339;48.748;2.222;2024-02-04T01:06:05;13.30;99.90
29345;DHT22;16339;48.748;2.222;2024-02-04T01:08:34;13.30;99.90
29345;DHT22;16339;48.748;2.222;2024-02-04T01:11:03;13.30;99.90
29345;DHT22;16339;48.748;2.222;2024-02-04T01:13:35;13.40;99.90
29345;DHT22;16339;48.748;2.222;2024-02-04T01:16:04;13.40;99.90
29345;DHT22;16339;48.748;2.222;2024-02-04T01:18:34;13.40;99.90
29345;DHT22;16339;48.748;2.222;2024-02-04T01:21:03;13.40;99.90
29345;DHT22;16339;48.748;2.222;2024-02-04T01:23:34;13.40;99.90
29345;DHT22;16339;48.748;2.222;2024-02-04T01:26:03;13.50;99.90
29345;DHT22;16339;48.748;2.222;2024-02-04T01:28:32;13.40;99.90
29345;DHT22;16339;48.748;2.222;2024-02-04T01:31:03;13.40;99.90
29345;DHT22;16339;48.748;2.222;2024-02-04T01:33:32;13.50;99.90
29345;DHT22;16339;48.748;2.222;2024-02-04T01:36:01;13.40;99.90
29345;DHT22;16339;48.748;2.222;2024-02-04T01:38:29;13.40;99.90
29345;DHT22;16339;48.748;2.222;2024-02-04T01:40:58;13.50;99.90
29345;DHT22;16339;48.748;2.222;2024-02-04T01:43:27;13.50;99.90
29345;DHT22;16339;48.748;2.222;2024-02-04T01:45:58;13.40;99.90
29345;DHT22;16339;48.748;2.222;2024-02-04T01:48:30;13.40;99.90
29345;DHT22;16339;48.748;2.222;2024-02-04T01:50:58;13.40;99.90
29345;DHT22;16339;48.748;2.222;2024-02-04T01:53:28;13.40;99.90
29345;DHT22;16339;48.748;2.222;2024-02-04T01:55:58;13.40;99.90
29345;DHT22;16339;48.748;2.222;2024-02-04T01:58:27;13.40;99.90
29345;DHT22;16339;48.748;2.222;2024-02-04T02:00:55;13.40;99.90
29345;DHT22;16339;48.748;2.222;2024-02-04T02:03:25;13.40;99.90
29345;DHT22;16339;48.748;2.222;2024-02-04T02:05:57;13.50;99.90
29345;DHT22;16339;48.748;2.222;2024-02-04T02:08:26;13.50;99.90
29345;DHT22;16339;48.748;2.222;2024-02-04T02:11:01;13.50;99.90
29345;DHT22;16339;48.748;2.222;2024-02-04T02:13:32;13.50;99.90
29345;DHT22;16339;48.748;2.222;2024-02-04T02:16:09;13.50;99.90
29345;DHT22;16339;48.748;2.222;2024-02-04T02:18:44;13.50;99.90
29345;DHT22;16339;48.748;2.222;2024-02-04T02:21:26;13.50;99.90
29345;DHT22;16339;48.748;2.222;2024-02-04T02:24:11;13.50;99.90
29345;DHT22;16339;48.748;2.222;2024-02-04T02:26:43;13.50;99.90
29345;DHT22;16339;48.748;2.222;2024-02-04T02:29:12;13.60;99.90
29345;DHT22;16339;48.748;2.222;2024-02-04T02:31:42;13.60;99.90
29345;DHT22;16339;48.748;2.222;2024-02-04T02:34:12;13.60;99.90
29345;DHT22;16339;48.748;2.222;2024-02-04T02:36:46;13.60;99.90
29345;DHT22;16339;48.748;2.222;2024-02-04T02:39:20;13.60;99.90
29345;DHT22;16339;48.748;2.222;2024-02-04T02:41:56;13.60;99.90
29345;DHT22;16339;48.748;2.222;2024-02-04T02:44:26;13.60;99.90
29345;DHT22;16339;48.748;2.222;2024-02-04T02:46:58;13.60;99.90
29345;DHT22;16339;48.748;2.222;2024-02-04T02:49:27;13.60;99.90
29345;DHT22;16339;48.748;2.222;2024-02-04T02:51:59;13.60;99.90
29345;DHT22;16339;48.748;2.222;2024-02-04T02:54:27;13.60;99.90
29345;DHT22;16339;48.748;2.222;2024-02-04T02:56:58;13.60;99.90
29345;DHT22;16339;48.748;2.222;2024-02-04T02:59:30;13.60;99.90
29345;DHT22;16339;48.748;2.222;2024-02-04T03:02:00;13.70;99.90
29345;DHT22;16339;48.748;2.222;2024-02-04T03:04:28;13.60;99.90
29345;DHT22;16339;48.748;2.222;2024-02-04T03:06:57;13.60;99.90
29345;DHT22;16339;48.748;2.222;2024-02-04T03:09:28;13.60;99.90
29345;DHT22;16339;48.748;2.222;2024-02-04T03:11:59;13.60;99.90
29345;DHT22;16339;48.748;2.222;2024-02-04T03:14:29;13.60;99.90
29345;DHT22;16339;48.748;2.222;2024-02-04T03:16:57;13.60;99.90
29345;DHT22;16339;48.748;2.222;2024-02-04T03:19:26;13.60;99.90
29345;DHT22;16339;48.748;2.222;2024-02-04T03:21:55;13.60;99.90
29345;DHT22;16339;48.748;2.222;2024-02-04T03:24:26;13.60;99.90
29345;DHT22;16339;48.748;2.222;2024-02-04T03:26:54;13.60;99.90
29345;DHT22;16339;48.748;2.222;2024-02-04T03:29:26;13.50;99.90
29345;DHT22;16339;48.748;2.222;2024-02-04T03:31:55;13.50;99.90
29345;DHT22;16339;48.748;2.222;2024-02-04T03:34:27;13.50;99.90
29345;DHT22;16339;48.748;2.222;2024-02-04T03:36:56;13.50;99.90
29345;DHT22;16339;48.748;2.222;2024-02-04T03:39:24;13.50;99.90
29345;DHT22;16339;48.748;2.222;2024-02-04T03:41:55;13.50;99.90
29345;DHT22;16339;48.748;2.222;2024-02-04T03:44:26;13.50;99.90
29345;DHT22;16339;48.748;2.222;2024-02-04T03:46:54;13.50;99.90
29345;DHT22;16339;48.748;2.222;2024-02-04T03:49:23;13.50;99.90
29345;DHT22;16339;48.748;2.222;2024-02-04T03:51:52;13.50;99.90
29345;DHT22;16339;48.748;2.222;2024-02-04T03:54:25;13.50;99.90
29345;DHT22;16339;48.748;2.222;2024-02-04T03:56:54;13.50;99.90
29345;DHT22;16339;48.748;2.222;2024-02-04T03:59:23;13.50;99.90
29345;DHT22;16339;48.748;2.222;2024-02-04T04:01:54;13.50;99.90
29345;DHT22;16339;48.748;2.222;2024-02-04T04:04:23;13.50;99.90
29345;DHT22;16339;48.748;2.222;2024-02-04T04:06:52;13.50;99.90
29345;DHT22;16339;48.748;2.222;2024-02-04T04:09:20;13.50;99.90
29345;DHT22;16339;48.748;2.222;2024-02-04T04:11:49;13.50;99.90
29345;DHT22;16339;48.748;2.222;2024-02-04T04:14:18;13.50;99.90
29345;DHT22;16339;48.748;2.222;2024-02-04T04:16:47;13.50;99.90
29345;DHT22;16339;48.748;2.222;2024-02-04T04:19:18;13.60;99.90
29345;DHT22;16339;48.748;2.222;2024-02-04T04:21:46;13.40;99.90
29345;DHT22;16339;48.748;2.222;2024-02-04T04:24:15;13.40;99.90
29345;DHT22;16339;48.748;2.222;2024-02-04T04:26:45;13.40;99.90
29345;DHT22;16339;48.748;2.222;2024-02-04T04:29:14;13.40;99.90
29345;DHT22;16339;48.748;2.222;2024-02-04T04:31:42;13.50;99.90
29345;DHT22;16339;48.748;2.222;2024-02-04T04:34:11;13.50;99.90
29345;DHT22;16339;48.748;2.222;2024-02-04T04:36:42;13.50;99.90
29345;DHT22;16339;48.748;2.222;2024-02-04T04:39:11;13.50;99.90
29345;DHT22;16339;48.748;2.222;2024-02-04T04:41:40;13.50;99.90
29345;DHT22;16339;48.748;2.222;2024-02-04T04:44:09;13.50;99.90
29345;DHT22;16339;48.748;2.222;2024-02-04T04:46:38;13.50;99.90
29345;DHT22;16339;48.748;2.222;2024-02-04T04:49:07;13.60;99.90
29345;DHT22;16339;48.748;2.222;2024-02-04T04:51:35;13.60;99.90
29345;DHT22;16339;48.748;2.222;2024-02-04T04:54:07;13.60;99.90
29345;DHT22;16339;48.748;2.222;2024-02-04T04:56:38;13.60;99.90
29345;DHT22;16339;48.748;2.222;2024-02-04T04:59:07;13.50;99.90
29345;DHT22;16339;48.748;2.222;2024-02-04T05:01:36;13.50;99.90
29345;DHT22;16339;48.748;2.222;2024-02-04T05:04:04;13.50;99.90
29345;DHT22;16339;48.748;2.222;2024-02-04T05:06:33;13.50;99.90
29345;DHT22;16339;48.748;2.222;2024-02-04T05:09:01;13.60;99.90
29345;DHT22;16339;48.748;2.222;2024-02-04T05:11:33;13.40;99.90
29345;DHT22;16339;48.748;2.222;2024-02-04T05:14:01;13.50;99.90
29345;DHT22;16339;48.748;2.222;2024-02-04T05:16:30;13.50;99.90
29345;DHT22;16339;48.748;2.222;2024-02-04T05:18:59;13.50;99.90
29345;DHT22;16339;48.748;2.222;2024-02-04T05:21:29;13.50;99.90
29345;DHT22;16339;48.748;2.222;2024-02-04T05:23:58;13.60;99.90
29345;DHT22;16339;48.748;2.222;2024-02-04T05:26:26;13.60;99.90
29345;DHT22;16339;48.748;2.222;2024-02-04T05:28:58;13.50;99.90
29345;DHT22;16339;48.748;2.222;2024-02-04T05:31:26;13.50;99.90
29345;DHT22;16339;48.748;2.222;2024-02-04T05:33:56;13.40;99.90
29345;DHT22;16339;48.748;2.222;2024-02-04T05:36:24;13.50;99.90
29345;DHT22;16339;48.748;2.222;2024-02-04T05:38:53;13.50;99.90
29345;DHT22;16339;48.748;2.222;2024-02-04T05:41:22;13.50;99.90
29345;DHT22;16339;48.748;2.222;2024-02-04T05:43:50;13.50;99.90
29345;DHT22;16339;48.748;2.222;2024-02-04T05:46:22;13.50;99.90
29345;DHT22;16339;48.748;2.222;2024-02-04T05:48:50;13.50;99.90
29345;DHT22;16339;48.748;2.222;2024-02-04T05:51:19;13.60;99.90
29345;DHT22;16339;48.748;2.222;2024-02-04T05:53:47;13.60;99.90
29345;DHT22;16339;48.748;2.222;2024-02-04T05:56:17;13.50;99.90
29345;DHT22;16339;48.748;2.222;2024-02-04T05:58:46;13.50;99.90
29345;DHT22;16339;48.748;2.222;2024-02-04T06:01:15;13.50;99.90
29345;DHT22;16339;48.748;2.222;2024-02-04T06:03:47;13.40;99.90
29345;DHT22;16339;48.748;2.222;2024-02-04T06:06:16;13.30;99.90
29345;DHT22;16339;48.748;2.222;2024-02-04T06:08:46;13.30;99.90
29345;DHT22;16339;48.748;2.222;2024-02-04T06:11:15;13.40;99.90
29345;DHT22;16339;48.748;2.222;2024-02-04T06:13:45;13.40;99.90
29345;DHT22;16339;48.748;2.222;2024-02-04T06:16:13;13.40;99.90
29345;DHT22;16339;48.748;2.222;2024-02-04T06:18:42;13.40;99.90
29345;DHT22;16339;48.748;2.222;2024-02-04T06:21:13;13.40;99.90
29345;DHT22;16339;48.748;2.222;2024-02-04T06:23:42;13.40;99.90
29345;DHT22;16339;48.748;2.222;2024-02-04T06:26:12;13.40;99.90
29345;DHT22;16339;48.748;2.222;2024-02-04T06:28:40;13.40;99.90
29345;DHT22;16339;48.748;2.222;2024-02-04T06:31:13;13.50;99.90
29345;DHT22;16339;48.748;2.222;2024-02-04T06:33:42;13.50;99.90
29345;DHT22;16339;48.748;2.222;2024-02-04T06:36:13;13.50;99.90
29345;DHT22;16339;48.748;2.222;2024-02-04T06:38:42;13.40;99.90
29345;DHT22;16339;48.748;2.222;2024-02-04T06:41:13;13.30;99.90
29345;DHT22;16339;48.748;2.222;2024-02-04T06:43:41;13.30;99.90
29345;DHT22;16339;48.748;2.222;2024-02-04T06:46:10;13.30;99.90
29345;DHT22;16339;48.748;2.222;2024-02-04T06:48:38;13.30;99.90
29345;DHT22;16339;48.748;2.222;2024-02-04T06:51:07;13.40;99.90
29345;DHT22;16339;48.748;2.222;2024-02-04T06:53:38;13.40;99.90
29345;DHT22;16339;48.748;2.222;2024-02-04T06:56:07;13.40;99.90
29345;DHT22;16339;48.748;2.222;2024-02-04T06:58:37;13.30;99.90
29345;DHT22;16339;48.748;2.222;2024-02-04T07:01:06;13.30;99.90
29345;DHT22;16339;48.748;2.222;2024-02-04T07:03:34;13.30;99.90
29345;DHT22;16339;48.748;2.222;2024-02-04T07:06:04;13.30;99.90
29345;DHT22;16339;48.748;2.222;2024-02-04T07:08:33;13.30;99.90
29345;DHT22;16339;48.748;2.222;2024-02-04T07:11:07;13.30;99.90
29345;DHT22;16339;48.748;2.222;2024-02-04T07:13:35;13.40;99.90
29345;DHT22;16339;48.748;2.222;2024-02-04T07:16:06;13.50;99.90
29345;DHT22;16339;48.748;2.222;2024-02-04T07:18:35;13.40;99.90
29345;DHT22;16339;48.748;2.222;2024-02-04T07:21:04;13.40;99.90
29345;DHT22;16339;48.748;2.222;2024-02-04T07:23:33;13.40;99.90
29345;DHT22;16339;48.748;2.222;2024-02-04T07:26:01;13.40;99.90
29345;DHT22;16339;48.748;2.222;2024-02-04T07:28:33;13.40;99.90
29345;DHT22;16339;48.748;2.222;2024-02-04T07:31:01;13.40;99.90
29345;DHT22;16339;48.748;2.222;2024-02-04T07:33:30;13.40;99.90
29345;DHT22;16339;48.748;2.222;2024-02-04T07:35:59;13.40;99.90
29345;DHT22;16339;48.748;2.222;2024-02-04T07:38:30;13.40;99.90
29345;DHT22;16339;48.748;2.222;2024-02-04T07:40:59;13.40;99.90
29345;DHT22;16339;48.748;2.222;2024-02-04T07:43:28;13.40;99.90
29345;DHT22;16339;48.748;2.222;2024-02-04T07:45:59;13.50;99.90
29345;DHT22;16339;48.748;2.222;2024-02-04T07:48:28;13.50;99.90
29345;DHT22;16339;48.748;2.222;2024-02-04T07:50:57;13.50;99.90
29345;DHT22;16339;48.748;2.222;2024-02-04T07:53:25;13.50;99.90
29345;DHT22;16339;48.748;2.222;2024-02-04T07:55:55;13.60;99.90
29345;DHT22;16339;48.748;2.222;2024-02-04T07:58:27;13.60;99.90
29345;DHT22;16339;48.748;2.222;2024-02-04T08:00:55;13.50;99.90
29345;DHT22;16339;48.748;2.222;2024-02-04T08:03:27;13.60;99.90
29345;DHT22;16339;48.748;2.222;2024-02-04T08:05:56;13.60;99.90
29345;DHT22;16339;48.748;2.222;2024-02-04T08:08:26;13.60;99.90
29345;DHT22;16339;48.748;2.222;2024-02-04T08:10:55;13.40;99.90
29345;DHT22;16339;48.748;2.222;2024-02-04T08:13:27;13.40;99.90
29345;DHT22;16339;48.748;2.222;2024-02-04T08:16:03;13.50;99.90
29345;DHT22;16339;48.748;2.222;2024-02-04T08:18:35;13.50;99.90
29345;DHT22;16339;48.748;2.222;2024-02-04T08:21:04;13.40;99.90
29345;DHT22;16339;48.748;2.222;2024-02-04T08:23:32;13.40;99.90
29345;DHT22;16339;48.748;2.222;2024-02-04T08:26:01;13.40;99.90
29345;DHT22;16339;48.748;2.222;2024-02-04T08:28:30;13.40;99.90
29345;DHT22;16339;48.748;2.222;2024-02-04T08:30:58;13.40;99.90
29345;DHT22;16339;48.748;2.222;2024-02-04T08:33:29;13.50;99.90
29345;DHT22;16339;48.748;2.222;2024-02-04T08:36:01;13.50;99.90
29345;DHT22;16339;48.748;2.222;2024-02-04T08:38:32;13.50;99.90
29345;DHT22;16339;48.748;2.222;2024-02-04T08:41:01;13.30;99.90
29345;DHT22;16339;48.748;2.222;2024-02-04T08:43:27;13.40;99.90
29345;DHT22;16339;48.748;2.222;2024-02-04T08:45:56;13.30;99.90
29345;DHT22;16339;48.748;2.222;2024-02-04T08:48:24;13.40;99.90
29345;DHT22;16339;48.748;2.222;2024-02-04T08:50:57;13.40;99.90
29345;DHT22;16339;48.748;2.222;2024-02-04T08:53:28;13.50;99.90
29345;DHT22;16339;48.748;2.222;2024-02-04T08:55:57;13.50;99.90
29345;DHT22;16339;48.748;2.222;2024-02-04T08:58:26;13.60;99.90
29345;DHT22;16339;48.748;2.222;2024-02-04T09:00:57;13.50;99.90
29345;DHT22;16339;48.748;2.222;2024-02-04T09:03:25;13.60;99.90
29345;DHT22;16339;48.748;2.222;2024-02-04T09:05:55;13.60;99.90
29345;DHT22;16339;48.748;2.222;2024-02-04T09:08:23;13.50;99.90
29345;DHT22;16339;48.748;2.222;2024-02-04T09:10:55;13.60;99.90
29345;DHT22;16339;48.748;2.222;2024-02-04T09:13:23;13.60;99.90
29345;DHT22;16339;48.748;2.222;2024-02-04T09:15:54;13.30;99.90
29345;DHT22;16339;48.748;2.222;2024-02-04T09:18:22;13.50;99.90
29345;DHT22;16339;48.748;2.222;2024-02-04T09:20:55;13.50;99.90
29345;DHT22;16339;48.748;2.222;2024-02-04T09:23:23;13.40;99.90
29345;DHT22;16339;48.748;2.222;2024-02-04T09:25:55;13.50;99.90
29345;DHT22;16339;48.748;2.222;2024-02-04T09:28:23;13.60;99.90
29345;DHT22;16339;48.748;2.222;2024-02-04T09:30:52;13.60;99.90
29345;DHT22;16339;48.748;2.222;2024-02-04T09:33:21;13.70;99.90
29345;DHT22;16339;48.748;2.222;2024-02-04T09:35:49;13.80;99.90
29345;DHT22;16339;48.748;2.222;2024-02-04T09:38:20;13.80;99.90
29345;DHT22;16339;48.748;2.222;2024-02-04T09:40:48;13.90;99.90
29345;DHT22;16339;48.748;2.222;2024-02-04T09:43:20;13.70;99.90
29345;DHT22;16339;48.748;2.222;2024-02-04T09:45:49;13.80;99.90
29345;DHT22;16339;48.748;2.222;2024-02-04T09:48:18;13.90;99.90
29345;DHT22;16339;48.748;2.222;2024-02-04T09:50:49;13.90;99.90
29345;DHT22;16339;48.748;2.222;2024-02-04T09:53:21;14.00;99.90
29345;DHT22;16339;48.748;2.222;2024-02-04T09:55:55;14.00;99.90
29345;DHT22;16339;48.748;2.222;2024-02-04T09:58:28;14.00;99.90
29345;DHT22;16339;48.748;2.222;2024-02-04T10:00:57;13.90;99.90
29345;DHT22;16339;48.748;2.222;2024-02-04T10:03:28;13.90;99.90
29345;DHT22;16339;48.748;2.222;2024-02-04T10:05:56;13.90;99.90
29345;DHT22;16339;48.748;2.222;2024-02-04T10:08:25;13.90;99.90
29345;DHT22;16339;48.748;2.222;2024-02-04T10:10:54;13.80;99.90
29345;DHT22;16339;48.748;2.222;2024-02-04T10:13:23;13.90;99.90
29345;DHT22;16339;48.748;2.222;2024-02-04T10:15:55;13.90;99.90
29345;DHT22;16339;48.748;2.222;2024-02-04T10:18:24;14.00;99.90
29345;DHT22;16339;48.748;2.222;2024-02-04T10:20:53;14.00;99.90
29345;DHT22;16339;48.748;2.222;2024-02-04T10:23:22;14.00;99.90
29345;DHT22;16339;48.748;2.222;2024-02-04T10:25:58;14.10;99.90
29345;DHT22;16339;48.748;2.222;2024-02-04T10:28:27;13.80;99.90
29345;DHT22;16339;48.748;2.222;2024-02-04T10:30:58;13.90;99.90
29345;DHT22;16339;48.748;2.222;2024-02-04T10:33:27;14.00;99.90
29345;DHT22;16339;48.748;2.222;2024-02-04T10:35:58;14.00;99.90
29345;DHT22;16339;48.748;2.222;2024-02-04T10:38:26;14.00;99.90
29345;DHT22;16339;48.748;2.222;2024-02-04T10:40:55;14.00;99.90
29345;DHT22;16339;48.748;2.222;2024-02-04T10:43:24;13.90;99.90
29345;DHT22;16339;48.748;2.222;2024-02-04T10:46:00;13.90;99.90
29345;DHT22;16339;48.748;2.222;2024-02-04T10:48:31;14.00;99.90
29345;DHT22;16339;48.748;2.222;2024-02-04T10:51:11;13.80;99.90
29345;DHT22;16339;48.748;2.222;2024-02-04T10:53:42;13.80;99.90
29345;DHT22;16339;48.748;2.222;2024-02-04T10:56:14;13.70;99.90
29345;DHT22;16339;48.748;2.222;2024-02-04T10:58:49;13.60;99.90
29345;DHT22;16339;48.748;2.222;2024-02-04T11:01:23;13.70;99.90
29345;DHT22;16339;48.748;2.222;2024-02-04T11:03:53;13.80;99.90
29345;DHT22;16339;48.748;2.222;2024-02-04T11:06:23;14.00;99.90
29345;DHT22;16339;48.748;2.222;2024-02-04T11:08:52;14.00;99.90
29345;DHT22;16339;48.748;2.222;2024-02-04T11:11:22;14.10;99.90
29345;DHT22;16339;48.748;2.222;2024-02-04T11:13:56;14.00;99.90
29345;DHT22;16339;48.748;2.222;2024-02-04T11:16:40;13.80;99.90
29345;DHT22;16339;48.748;2.222;2024-02-04T11:19:23;13.80;99.90
29345;DHT22;16339;48.748;2.222;2024-02-04T11:22:14;13.70;99.90
29345;DHT22;16339;48.748;2.222;2024-02-04T11:25:05;13.70;99.90
29345;DHT22;16339;48.748;2.222;2024-02-04T11:27:37;13.70;99.90
29345;DHT22;16339;48.748;2.222;2024-02-04T11:30:07;13.80;99.90
29345;DHT22;16339;48.748;2.222;2024-02-04T11:32:39;13.90;99.90
29345;DHT22;16339;48.748;2.222;2024-02-04T11:35:10;13.70;99.90
29345;DHT22;16339;48.748;2.222;2024-02-04T11:37:39;13.80;99.90
29345;DHT22;16339;48.748;2.222;2024-02-04T11:40:13;13.80;99.90
29345;DHT22;16339;48.748;2.222;2024-02-04T11:42:44;13.90;99.90
29345;DHT22;16339;48.748;2.222;2024-02-04T11:45:16;14.00;99.90
29345;DHT22;16339;48.748;2.222;2024-02-04T11:47:47;14.00;99.90
29345;DHT22;16339;48.748;2.222;2024-02-04T11:50:28;13.90;99.90
29345;DHT22;16339;48.748;2.222;2024-02-04T11:53:06;13.70;99.90
29345;DHT22;16339;48.748;2.222;2024-02-04T11:55:35;13.80;99.90
29345;DHT22;16339;48.748;2.222;2024-02-04T11:58:05;13.80;99.90
29345;DHT22;16339;48.748;2.222;2024-02-04T12:00:35;13.70;99.90
29345;DHT22;16339;48.748;2.222;2024-02-04T12:03:08;13.90;99.90
29345;DHT22;16339;48.748;2.222;2024-02-04T12:05:37;13.90;99.90
29345;DHT22;16339;48.748;2.222;2024-02-04T12:08:07;13.90;99.90
29345;DHT22;16339;48.748;2.222;2024-02-04T12:10:36;13.80;99.90
29345;DHT22;16339;48.748;2.222;2024-02-04T12:13:06;13.70;99.90
29345;DHT22;16339;48.748;2.222;2024-02-04T12:15:35;13.50;99.90
29345;DHT22;16339;48.748;2.222;2024-02-04T12:18:11;13.60;99.90
29345;DHT22;16339;48.748;2.222;2024-02-04T12:20:40;13.80;99.90
29345;DHT22;16339;48.748;2.222;2024-02-04T12:23:08;13.90;99.90
29345;DHT22;16339;48.748;2.222;2024-02-04T12:25:37;13.60;99.90
29345;DHT22;16339;48.748;2.222;2024-02-04T12:28:06;13.60;99.90
29345;DHT22;16339;48.748;2.222;2024-02-04T12:30:35;13.80;99.90
29345;DHT22;16339;48.748;2.222;2024-02-04T12:33:08;13.60;99.90
29345;DHT22;16339;48.748;2.222;2024-02-04T12:35:38;13.70;99.90
29345;DHT22;16339;48.748;2.222;2024-02-04T12:38:06;13.70;99.90
29345;DHT22;16339;48.748;2.222;2024-02-04T12:40:35;13.40;99.90
29345;DHT22;16339;48.748;2.222;2024-02-04T12:43:06;13.40;99.90
29345;DHT22;16339;48.748;2.222;2024-02-04T12:45:35;13.40;99.90
29345;DHT22;16339;48.748;2.222;2024-02-04T12:48:04;13.40;99.90
29345;DHT22;16339;48.748;2.222;2024-02-04T12:50:37;13.50;99.90
29345;DHT22;16339;48.748;2.222;2024-02-04T12:53:07;13.50;99.90
29345;DHT22;16339;48.748;2.222;2024-02-04T12:55:37;13.60;99.90
29345;DHT22;16339;48.748;2.222;2024-02-04T12:58:09;13.50;99.90
29345;DHT22;16339;48.748;2.222;2024-02-04T13:00:40;13.40;99.90
29345;DHT22;16339;48.748;2.222;2024-02-04T13:03:09;13.20;99.90
29345;DHT22;16339;48.748;2.222;2024-02-04T13:05:41;13.40;99.90
29345;DHT22;16339;48.748;2.222;2024-02-04T13:08:11;13.30;99.90
29345;DHT22;16339;48.748;2.222;2024-02-04T13:10:39;13.00;99.90
29345;DHT22;16339;48.748;2.222;2024-02-04T13:13:09;13.30;99.90
29345;DHT22;16339;48.748;2.222;2024-02-04T13:15:40;13.40;99.90
29345;DHT22;16339;48.748;2.222;2024-02-04T13:18:12;13.30;99.90
29345;DHT22;16339;48.748;2.222;2024-02-04T13:20:44;13.50;99.90
29345;DHT22;16339;48.748;2.222;2024-02-04T13:23:13;13.40;99.90
29345;DHT22;16339;48.748;2.222;2024-02-04T13:25:43;13.30;99.90
29345;DHT22;16339;48.748;2.222;2024-02-04T13:28:12;13.30;99.90
29345;DHT22;16339;48.748;2.222;2024-02-04T13:30:41;13.20;99.90
29345;DHT22;16339;48.748;2.222;2024-02-04T13:33:10;13.50;99.90
29345;DHT22;16339;48.748;2.222;2024-02-04T13:35:39;13.70;99.90
29345;DHT22;16339;48.748;2.222;2024-02-04T13:38:11;13.70;99.90
29345;DHT22;16339;48.748;2.222;2024-02-04T13:40:39;13.90;99.90
29345;DHT22;16339;48.748;2.222;2024-02-04T13:43:08;13.90;99.90
29345;DHT22;16339;48.748;2.222;2024-02-04T13:45:37;13.90;99.90
29345;DHT22;16339;48.748;2.222;2024-02-04T13:48:06;13.90;99.90
29345;DHT22;16339;48.748;2.222;2024-02-04T13:50:35;13.80;99.90
29345;DHT22;16339;48.748;2.222;2024-02-04T13:53:04;13.90;99.90
29345;DHT22;16339;48.748;2.222;2024-02-04T13:55:35;14.10;99.90
29345;DHT22;16339;48.748;2.222;2024-02-04T13:58:04;14.00;99.90
29345;DHT22;16339;48.748;2.222;2024-02-04T14:00:35;14.00;99.90
29345;DHT22;16339;48.748;2.222;2024-02-04T14:03:04;14.00;99.90
29345;DHT22;16339;48.748;2.222;2024-02-04T14:05:34;13.90;99.90
29345;DHT22;16339;48.748;2.222;2024-02-04T14:08:04;13.90;99.90
29345;DHT22;16339;48.748;2.222;2024-02-04T14:10:35;13.80;99.90
29345;DHT22;16339;48.748;2.222;2024-02-04T14:13:04;13.80;99.90
29345;DHT22;16339;48.748;2.222;2024-02-04T14:15:34;13.70;99.90
29345;DHT22;16339;48.748;2.222;2024-02-04T14:18:06;13.70;99.90
29345;DHT22;16339;48.748;2.222;2024-02-04T14:20:34;13.70;99.90
29345;DHT22;16339;48.748;2.222;2024-02-04T14:23:05;13.70;99.90
29345;DHT22;16339;48.748;2.222;2024-02-04T14:25:37;13.60;99.90
29345;DHT22;16339;48.748;2.222;2024-02-04T14:28:06;13.70;99.90
29345;DHT22;16339;48.748;2.222;2024-02-04T14:30:34;13.80;99.90
29345;DHT22;16339;48.748;2.222;2024-02-04T14:33:04;13.60;99.90
29345;DHT22;16339;48.748;2.222;2024-02-04T14:35:30;13.60;99.90
29345;DHT22;16339;48.748;2.222;2024-02-04T14:37:58;13.60;99.90
29345;DHT22;16339;48.748;2.222;2024-02-04T14:40:27;13.60;99.90
29345;DHT22;16339;48.748;2.222;2024-02-04T14:42:59;13.70;99.90
29345;DHT22;16339;48.748;2.222;2024-02-04T14:45:27;13.60;99.90
29345;DHT22;16339;48.748;2.222;2024-02-04T14:47:56;13.50;99.90
29345;DHT22;16339;48.748;2.222;2024-02-04T14:50:25;13.70;99.90
29345;DHT22;16339;48.748;2.222;2024-02-04T14:52:53;13.80;99.90
29345;DHT22;16339;48.748;2.222;2024-02-04T14:55:22;13.40;99.90
29345;DHT22;16339;48.748;2.222;2024-02-04T14:57:51;13.50;99.90
29345;DHT22;16339;48.748;2.222;2024-02-04T15:00:22;13.30;99.90
29345;DHT22;16339;48.748;2.222;2024-02-04T15:02:54;13.20;99.90
29345;DHT22;16339;48.748;2.222;2024-02-04T15:05:23;13.10;99.90
29345;DHT22;16339;48.748;2.222;2024-02-04T15:07:52;13.20;99.90
29345;DHT22;16339;48.748;2.222;2024-02-04T15:10:21;13.30;99.90
29345;DHT22;16339;48.748;2.222;2024-02-04T15:12:50;13.50;99.90
29345;DHT22;16339;48.748;2.222;2024-02-04T15:15:23;13.40;99.90
29345;DHT22;16339;48.748;2.222;2024-02-04T15:17:53;13.60;99.90
29345;DHT22;16339;48.748;2.222;2024-02-04T15:20:22;13.70;99.90
29345;DHT22;16339;48.748;2.222;2024-02-04T15:22:52;13.80;99.90
29345;DHT22;16339;48.748;2.222;2024-02-04T15:25:22;13.90;99.90
29345;DHT22;16339;48.748;2.222;2024-02-04T15:27:52;13.80;99.90
29345;DHT22;16339;48.748;2.222;2024-02-04T15:30:25;13.70;99.90
29345;DHT22;16339;48.748;2.222;2024-02-04T15:32:58;13.60;99.90
29345;DHT22;16339;48.748;2.222;2024-02-04T15:35:27;13.70;99.90
29345;DHT22;16339;48.748;2.222;2024-02-04T15:37:59;13.60;99.90
29345;DHT22;16339;48.748;2.222;2024-02-04T15:40:28;13.60;99.90
29345;DHT22;16339;48.748;2.222;2024-02-04T15:42:57;13.50;99.90
29345;DHT22;16339;48.748;2.222;2024-02-04T15:45:29;13.60;99.90
29345;DHT22;16339;48.748;2.222;2024-02-04T15:48:02;13.70;99.90